Time;durP1;ratioP1;P1;durP2;ratioP2;P2;SDS_P1;SDS_P2;PMS_P1;PMS_P2;Temp;Humidity;BMP_temperature;BMP_pressure;BME280_temperature;BME280_humidity;BME280_pressure;Samples;Min_cycle;Max_cycle;Signal;HPM_P1;HPM_P2
2022/03/06 00:02:03;;;;;;;2.17;1.60;;;18.90;45.80;;;;;;6195759;28;20065;-64
2022/03/06 00:05:07;;;;;;;2.70;1.50;;;19.00;45.90;;;;;;6195935;28;20021;-64
2022/03/06 00:08:07;;;;;;;2.75;1.77;;;19.00;45.90;;;;;;6195568;28;20093;-64
2022/03/06 00:11:08;;;;;;;2.13;1.38;;;19.00;45.90;;;;;;6195914;28;20032;-64
2022/03/06 00:14:08;;;;;;;2.20;1.35;;;19.00;45.90;;;;;;6195504;28;20081;-63
2022/03/06 00:17:09;;;;;;;2.20;1.55;;;19.00;45.90;;;;;;6195979;28;20033;-64
2022/03/06 00:20:10;;;;;;;1.98;1.55;;;19.00;45.90;;;;;;6195544;28;20501;-64
2022/03/06 00:23:11;;;;;;;2.08;1.50;;;18.90;45.90;;;;;;6195865;28;20026;-64
2022/03/06 00:26:11;;;;;;;1.90;1.58;;;19.00;45.90;;;;;;6194457;28;20046;-64
2022/03/06 00:29:13;;;;;;;1.67;1.40;;;19.00;45.90;;;;;;6195406;28;20493;-64
2022/03/06 00:32:14;;;;;;;1.90;1.30;;;18.90;45.90;;;;;;6195276;28;20022;-64
2022/03/06 00:35:14;;;;;;;1.88;1.40;;;18.90;45.90;;;;;;6195599;28;20125;-64
2022/03/06 00:38:15;;;;;;;1.60;1.27;;;18.90;45.90;;;;;;6195063;28;20030;-64
2022/03/06 00:41:16;;;;;;;2.13;1.48;;;18.90;45.90;;;;;;6195258;28;20073;-63
2022/03/06 00:44:16;;;;;;;2.25;1.65;;;19.00;46.00;;;;;;6194734;28;20481;-64
2022/03/06 00:47:17;;;;;;;2.75;1.52;;;19.00;46.00;;;;;;6194851;28;20030;-64
2022/03/06 00:50:17;;;;;;;2.63;1.60;;;18.90;45.90;;;;;;6194923;28;20038;-64
2022/03/06 00:53:18;;;;;;;2.78;1.65;;;18.90;45.90;;;;;;6194981;28;20440;-64
2022/03/06 00:56:18;;;;;;;2.40;1.67;;;18.90;46.00;;;;;;6194978;28;20584;-63
2022/03/06 00:59:19;;;;;;;1.80;1.35;;;19.00;46.00;;;;;;6194842;28;20049;-64
2022/03/06 01:02:20;;;;;;;2.00;1.30;;;18.90;45.90;;;;;;6195144;28;20114;-64
2022/03/06 01:05:21;;;;;;;1.95;1.48;;;18.90;46.00;;;;;;6194700;28;20026;-63
2022/03/06 01:08:21;;;;;;;2.35;1.50;;;18.90;45.90;;;;;;6194609;28;20342;-63
2022/03/06 01:11:22;;;;;;;1.90;1.30;;;18.90;46.00;;;;;;6194786;28;20030;-64
2022/03/06 01:14:23;;;;;;;1.42;1.20;;;18.90;45.90;;;;;;6194642;28;20475;-66
2022/03/06 01:17:23;;;;;;;2.47;1.50;;;18.90;45.90;;;;;;6194835;28;20030;-64
2022/03/06 01:20:24;;;;;;;2.50;1.40;;;18.90;45.90;;;;;;6195241;28;20053;-64
2022/03/06 01:23:25;;;;;;;1.88;1.30;;;18.90;46.00;;;;;;6194663;28;20121;-64
2022/03/06 01:26:25;;;;;;;2.22;1.50;;;18.90;46.00;;;;;;6194072;28;20048;-64
2022/03/06 01:29:26;;;;;;;2.97;1.50;;;18.90;46.00;;;;;;6194387;28;20543;-65
2022/03/06 01:32:27;;;;;;;2.22;1.50;;;18.90;45.90;;;;;;6194410;28;20062;-64
2022/03/06 01:35:27;;;;;;;4.13;1.35;;;18.90;45.90;;;;;;6194435;28;20022;-64
2022/03/06 01:38:28;;;;;;;1.65;1.20;;;18.90;46.00;;;;;;6194247;28;20032;-65
2022/03/06 01:41:33;;;;;;;2.30;1.40;;;18.90;46.00;;;;;;6194049;28;20026;-64
2022/03/06 01:44:33;;;;;;;2.38;1.70;;;18.90;46.00;;;;;;6195867;28;20027;-64
2022/03/06 01:47:34;;;;;;;2.22;1.40;;;18.90;45.90;;;;;;6198930;28;20125;-64
2022/03/06 01:50:36;;;;;;;1.80;1.50;;;18.90;46.00;;;;;;6198958;28;20443;-64
2022/03/06 01:53:36;;;;;;;2.13;1.52;;;18.90;46.00;;;;;;6199366;28;20247;-64
2022/03/06 01:56:37;;;;;;;1.67;1.20;;;18.90;46.00;;;;;;6198873;28;20784;-63
2022/03/06 01:59:37;;;;;;;1.48;1.10;;;18.90;45.90;;;;;;6198772;28;20026;-64
2022/03/06 02:02:38;;;;;;;1.48;1.13;;;18.90;46.00;;;;;;6199134;28;20033;-63
2022/03/06 02:05:39;;;;;;;2.33;1.55;;;18.90;46.00;;;;;;6198362;28;20397;-64
2022/03/06 02:08:40;;;;;;;1.95;1.20;;;18.90;46.00;;;;;;6198471;28;20097;-63
2022/03/06 02:11:41;;;;;;;2.35;1.15;;;18.90;46.00;;;;;;6198340;28;20034;-64
2022/03/06 02:14:41;;;;;;;1.85;1.25;;;18.90;46.70;;;;;;6198908;28;20097;-64
2022/03/06 02:17:43;;;;;;;1.73;1.30;;;18.90;46.00;;;;;;6198258;28;20575;-64
2022/03/06 02:20:43;;;;;;;2.22;1.40;;;18.90;45.90;;;;;;6198266;28;20549;-64
2022/03/06 02:23:45;;;;;;;1.77;1.30;;;18.90;46.00;;;;;;6197835;28;20056;-64
2022/03/06 02:26:45;;;;;;;1.60;1.30;;;18.90;46.00;;;;;;6197937;28;20031;-64
2022/03/06 02:29:46;;;;;;;1.13;0.98;;;18.90;46.00;;;;;;6197896;28;20036;-64
2022/03/06 02:32:49;;;;;;;1.77;1.20;;;18.90;46.00;;;;;;6198581;28;20081;-64
2022/03/06 02:35:50;;;;;;;2.10;1.42;;;18.90;46.00;;;;;;6198168;28;20034;-64
2022/03/06 02:38:51;;;;;;;1.67;1.20;;;18.90;46.00;;;;;;6197926;28;20026;-64
2022/03/06 02:41:51;;;;;;;1.63;1.20;;;18.90;46.00;;;;;;6197528;28;20798;-64
2022/03/06 02:44:52;;;;;;;1.70;1.13;;;18.90;46.00;;;;;;6197512;28;20019;-64
2022/03/06 02:47:54;;;;;;;2.17;1.20;;;18.90;46.00;;;;;;6197460;28;20080;-64
2022/03/06 02:50:55;;;;;;;1.70;1.30;;;18.90;45.90;;;;;;6197593;28;20038;-65
2022/03/06 02:53:55;;;;;;;1.52;1.33;;;18.90;46.00;;;;;;6197440;28;20023;-64
2022/03/06 02:56:56;;;;;;;1.77;1.20;;;18.90;46.00;;;;;;6197439;28;20556;-64
2022/03/06 02:59:56;;;;;;;2.05;1.40;;;18.90;46.00;;;;;;6197134;28;20030;-64
2022/03/06 03:02:57;;;;;;;2.00;1.30;;;18.90;46.00;;;;;;6197441;28;20478;-64
2022/03/06 03:05:57;;;;;;;1.88;1.35;;;18.90;46.00;;;;;;6197161;28;20042;-63
2022/03/06 03:08:58;;;;;;;2.10;1.50;;;18.90;46.00;;;;;;6197224;28;20042;-64
2022/03/06 03:11:59;;;;;;;2.20;1.40;;;18.90;46.00;;;;;;6197385;28;20026;-64
2022/03/06 03:15:00;;;;;;;2.05;1.30;;;18.90;46.00;;;;;;6196914;28;20034;-64
2022/03/06 03:18:01;;;;;;;1.42;1.20;;;18.90;46.00;;;;;;6197165;28;20035;-64
2022/03/06 03:21:01;;;;;;;1.65;1.20;;;18.90;46.10;;;;;;6196703;28;20109;-64
2022/03/06 03:24:03;;;;;;;1.83;1.50;;;18.90;46.00;;;;;;6196733;28;20046;-64
2022/03/06 03:27:03;;;;;;;2.40;1.40;;;18.90;46.00;;;;;;6196617;28;20044;-67
2022/03/06 03:30:05;;;;;;;1.80;1.30;;;18.90;46.00;;;;;;6196469;28;20038;-64
2022/03/06 03:33:06;;;;;;;1.60;1.13;;;18.90;46.00;;;;;;6196839;28;20027;-64
2022/03/06 03:36:06;;;;;;;1.70;1.08;;;18.90;46.00;;;;;;6197068;28;20437;-64
2022/03/06 03:39:07;;;;;;;2.22;1.50;;;18.90;46.00;;;;;;6196443;28;20026;-64
2022/03/06 03:42:08;;;;;;;1.75;1.27;;;18.90;46.00;;;;;;6196781;28;20025;-64
2022/03/06 03:45:09;;;;;;;1.63;1.27;;;18.90;46.00;;;;;;6196245;28;20409;-64
2022/03/06 03:48:09;;;;;;;1.88;1.33;;;18.90;46.00;;;;;;6196225;28;20038;-64
2022/03/06 03:51:10;;;;;;;1.27;1.00;;;18.90;46.00;;;;;;6195824;28;20034;-64
2022/03/06 03:54:11;;;;;;;1.95;1.50;;;18.90;46.00;;;;;;6196538;28;20454;-64
2022/03/06 03:57:13;;;;;;;1.80;1.13;;;18.90;46.00;;;;;;6196089;28;20038;-64
2022/03/06 04:00:14;;;;;;;1.60;1.33;;;18.90;46.00;;;;;;6196050;28;20026;-64
2022/03/06 04:03:14;;;;;;;1.23;1.00;;;18.90;46.00;;;;;;6196219;28;20022;-64
2022/03/06 04:06:15;;;;;;;1.30;1.20;;;18.90;46.00;;;;;;6196143;28;20029;-64
2022/03/06 04:09:15;;;;;;;2.35;1.15;;;18.90;46.00;;;;;;6195639;28;20062;-64
2022/03/06 04:12:16;;;;;;;1.50;1.13;;;18.90;45.90;;;;;;6195830;28;20023;-64
2022/03/06 04:15:17;;;;;;;1.58;1.13;;;18.90;46.00;;;;;;6196216;28;20022;-64
2022/03/06 04:18:17;;;;;;;1.95;1.30;;;18.90;46.00;;;;;;6195931;28;20034;-64
2022/03/06 04:21:18;;;;;;;1.75;1.08;;;18.90;46.10;;;;;;6195271;28;20109;-64
2022/03/06 04:24:18;;;;;;;1.52;1.20;;;18.90;46.00;;;;;;6195494;28;20497;-64
2022/03/06 04:27:19;;;;;;;1.95;1.50;;;18.90;46.00;;;;;;6195489;28;20022;-63
2022/03/06 04:30:19;;;;;;;1.70;0.98;;;18.90;46.10;;;;;;6195919;28;20382;-64
2022/03/06 04:33:20;;;;;;;1.30;1.00;;;18.90;46.10;;;;;;6194988;28;20109;-65
2022/03/06 04:36:20;;;;;;;1.40;0.90;;;18.90;46.00;;;;;;6195512;28;20085;-64
2022/03/06 04:39:21;;;;;;;1.50;1.20;;;18.90;46.00;;;;;;6195027;28;20048;-65
2022/03/06 04:42:22;;;;;;;1.30;1.05;;;18.90;46.00;;;;;;6195337;28;20117;-64
2022/03/06 04:45:24;;;;;;;1.80;1.05;;;18.80;46.00;;;;;;6194913;28;20072;-64
2022/03/06 04:48:25;;;;;;;2.05;1.30;;;18.90;46.10;;;;;;6195034;28;20034;-65
2022/03/06 04:51:25;;;;;;;1.75;1.30;;;18.90;46.00;;;;;;6194683;28;20113;-64
2022/03/06 04:54:26;;;;;;;1.15;1.00;;;18.90;46.00;;;;;;6195251;28;20523;-64
2022/03/06 04:57:26;;;;;;;1.80;1.38;;;18.90;46.00;;;;;;6194743;28;20028;-64
2022/03/06 05:00:42;;;;;;;1.75;1.20;;;18.90;46.10;;;;;;6194810;28;20053;-64
2022/03/06 05:03:42;;;;;;;2.08;1.33;;;18.90;46.10;;;;;;6194704;28;20031;-64
2022/03/06 05:06:43;;;;;;;1.55;1.20;;;18.90;46.10;;;;;;6195064;28;20064;-64
2022/03/06 05:09:43;;;;;;;1.50;1.33;;;18.90;46.10;;;;;;6194669;28;20034;-64
2022/03/06 05:12:44;;;;;;;2.25;1.20;;;18.80;46.00;;;;;;6194633;28;20505;-64
2022/03/06 05:15:44;;;;;;;1.60;1.00;;;18.90;46.00;;;;;;6194592;28;20030;-64
2022/03/06 05:18:45;;;;;;;1.88;1.20;;;18.90;46.00;;;;;;6195023;28;20033;-64
2022/03/06 05:21:45;;;;;;;1.58;1.17;;;18.90;46.00;;;;;;6199561;28;20437;-64
2022/03/06 05:24:46;;;;;;;1.35;1.02;;;18.90;46.10;;;;;;6199372;28;20133;-64
2022/03/06 05:27:46;;;;;;;1.40;1.10;;;18.90;46.00;;;;;;6199309;28;20136;-64
2022/03/06 05:30:47;;;;;;;1.95;1.20;;;18.90;46.90;;;;;;6199558;28;20526;-64
2022/03/06 05:33:47;;;;;;;1.33;1.15;;;18.90;46.10;;;;;;6199431;28;20034;-64
2022/03/06 05:36:48;;;;;;;1.60;1.05;;;18.90;46.10;;;;;;6199684;28;20073;-64
2022/03/06 05:39:48;;;;;;;1.20;1.05;;;18.90;46.10;;;;;;6199584;28;20014;-65
2022/03/06 05:42:49;;;;;;;1.88;0.88;;;18.90;46.00;;;;;;6199194;28;20469;-64
2022/03/06 05:45:51;;;;;;;1.58;1.02;;;18.90;46.10;;;;;;6199141;28;20129;-64
2022/03/06 05:48:52;;;;;;;1.30;0.93;;;18.90;46.10;;;;;;6199154;28;20038;-64
2022/03/06 05:51:52;;;;;;;1.27;0.98;;;18.90;46.10;;;;;;6199273;28;20504;-64
2022/03/06 05:54:53;;;;;;;1.55;1.15;;;18.90;46.10;;;;;;6199199;28;20066;-64
2022/03/06 05:57:53;;;;;;;1.08;0.85;;;18.90;46.10;;;;;;6198836;28;20478;-64
2022/03/06 06:00:54;;;;;;;1.45;0.98;;;18.80;46.00;;;;;;6197632;28;20473;-64
2022/03/06 06:03:56;;;;;;;1.45;1.10;;;18.90;46.10;;;;;;6174722;28;20062;-64
2022/03/06 06:06:57;;;;;;;2.10;1.05;;;18.80;46.00;;;;;;6174523;28;20402;-64
2022/03/06 06:09:57;;;;;;;1.25;1.00;;;18.90;46.10;;;;;;6174536;28;20130;-64
2022/03/06 06:12:58;;;;;;;2.03;1.25;;;18.90;46.10;;;;;;6174308;28;20394;-65
2022/03/06 06:15:58;;;;;;;1.67;1.02;;;18.90;46.10;;;;;;6189361;28;20129;-64
2022/03/06 06:18:59;;;;;;;1.30;0.90;;;18.90;46.10;;;;;;6174529;28;20058;-64
2022/03/06 06:21:59;;;;;;;1.23;1.10;;;18.90;46.10;;;;;;6178657;28;20393;-64
2022/03/06 06:25:01;;;;;;;1.25;1.08;;;18.90;46.10;;;;;;6197544;28;20478;-64
2022/03/06 06:28:01;;;;;;;1.67;1.15;;;18.90;46.00;;;;;;6198310;28;20027;-64
2022/03/06 06:31:02;;;;;;;1.15;0.95;;;18.90;46.10;;;;;;6197745;28;20038;-64
2022/03/06 06:34:03;;;;;;;1.88;1.23;;;18.90;46.10;;;;;;6198127;28;20482;-64
2022/03/06 06:37:04;;;;;;;1.45;0.98;;;18.90;46.10;;;;;;6197733;28;20089;-64
2022/03/06 06:40:05;;;;;;;1.27;1.02;;;18.90;46.10;;;;;;6198431;28;20027;-64
2022/03/06 06:43:05;;;;;;;1.65;1.10;;;18.80;46.00;;;;;;6197514;28;20066;-64
2022/03/06 06:46:06;;;;;;;1.52;1.10;;;18.90;46.10;;;;;;6197825;28;20031;-64
2022/03/06 06:49:06;;;;;;;1.20;0.90;;;18.90;46.10;;;;;;6197593;28;20074;-64
2022/03/06 06:52:07;;;;;;;1.60;1.20;;;18.90;46.00;;;;;;6197591;28;20064;-64
2022/03/06 06:55:08;;;;;;;1.33;1.10;;;18.90;46.00;;;;;;6197407;28;20350;-64
2022/03/06 06:58:09;;;;;;;1.50;1.05;;;18.90;46.10;;;;;;6198149;28;20022;-64
2022/03/06 07:01:10;;;;;;;1.10;1.00;;;18.90;46.10;;;;;;6197245;28;20033;-64
2022/03/06 07:04:10;;;;;;;1.40;0.90;;;18.90;46.20;;;;;;6197700;28;20030;-64
2022/03/06 07:07:11;;;;;;;1.35;1.10;;;18.90;46.20;;;;;;6197407;28;20044;-64
2022/03/06 07:10:11;;;;;;;1.42;1.15;;;18.90;46.10;;;;;;6197252;28;20578;-64
2022/03/06 07:13:12;;;;;;;1.00;0.85;;;18.80;46.10;;;;;;6196941;28;20401;-64
2022/03/06 07:16:13;;;;;;;1.30;0.95;;;18.80;45.90;;;;;;6196986;28;20033;-64
2022/03/06 07:19:14;;;;;;;1.13;0.93;;;18.90;46.00;;;;;;6197199;28;20627;-64
2022/03/06 07:22:15;;;;;;;1.10;1.00;;;18.90;46.10;;;;;;6197055;28;20118;-64
2022/03/06 07:25:16;;;;;;;1.00;0.90;;;18.80;46.00;;;;;;6196757;28;20481;-64
2022/03/06 07:28:17;;;;;;;1.23;1.02;;;18.90;46.10;;;;;;6196479;28;20045;-64
2022/03/06 07:31:17;;;;;;;1.60;1.10;;;18.80;46.10;;;;;;6196817;28;20026;-64
2022/03/06 07:34:18;;;;;;;1.38;1.00;;;18.80;46.00;;;;;;6196644;28;20034;-64
2022/03/06 07:37:18;;;;;;;1.45;1.00;;;18.80;46.00;;;;;;6196899;28;20114;-64
2022/03/06 07:40:21;;;;;;;1.30;1.00;;;18.80;46.10;;;;;;6197117;28;20026;-64
2022/03/06 07:43:22;;;;;;;1.50;0.90;;;18.90;46.10;;;;;;6195750;28;20030;-64
2022/03/06 07:46:22;;;;;;;1.30;1.00;;;18.80;46.00;;;;;;6196384;28;20018;-64
2022/03/06 07:49:23;;;;;;;1.02;0.77;;;18.80;46.00;;;;;;6195946;28;20038;-64
2022/03/06 07:52:23;;;;;;;1.10;0.90;;;18.90;46.10;;;;;;6194790;28;20054;-63
2022/03/06 07:55:24;;;;;;;1.15;0.80;;;18.80;46.00;;;;;;6196298;28;20042;-64
2022/03/06 07:58:24;;;;;;;1.52;0.80;;;18.90;46.10;;;;;;6196053;28;20459;-64
2022/03/06 08:01:25;;;;;;;1.35;0.90;;;18.80;46.10;;;;;;6196492;28;20037;-64
2022/03/06 08:04:25;;;;;;;1.00;0.80;;;18.90;46.10;;;;;;6196084;28;20058;-63
2022/03/06 08:07:26;;;;;;;1.80;1.02;;;18.80;46.00;;;;;;6195896;28;20050;-64
2022/03/06 08:10:26;;;;;;;1.42;1.00;;;18.90;46.20;;;;;;6196201;28;20548;-64
2022/03/06 08:13:27;;;;;;;1.33;0.90;;;18.80;46.10;;;;;;6195904;28;20385;-64
2022/03/06 08:16:27;;;;;;;1.10;0.95;;;18.80;46.10;;;;;;6195567;28;20105;-64
2022/03/06 08:19:28;;;;;;;1.35;1.10;;;18.80;46.10;;;;;;6195347;28;20029;-64
2022/03/06 08:22:28;;;;;;;1.13;0.93;;;18.80;46.10;;;;;;6195741;28;20409;-64
2022/03/06 08:25:29;;;;;;;1.20;0.90;;;18.90;46.20;;;;;;6194731;28;20445;-64
2022/03/06 08:28:30;;;;;;;1.40;0.90;;;18.80;46.10;;;;;;6194947;28;20085;-64
2022/03/06 08:31:31;;;;;;;1.00;0.90;;;18.80;46.10;;;;;;6195350;28;20029;-64
2022/03/06 08:34:32;;;;;;;1.23;0.90;;;18.90;46.20;;;;;;6195108;28;20153;-64
2022/03/06 08:37:33;;;;;;;1.30;0.82;;;18.80;46.00;;;;;;6195157;28;20088;-63
2022/03/06 08:40:34;;;;;;;1.38;0.93;;;18.80;46.00;;;;;;6194859;28;20382;-64
2022/03/06 08:43:34;;;;;;;1.80;1.05;;;18.80;46.00;;;;;;6195316;28;20026;-64
2022/03/06 08:46:35;;;;;;;1.95;1.08;;;18.80;46.10;;;;;;6195600;28;20030;-63
2022/03/06 08:49:35;;;;;;;1.00;0.85;;;18.80;46.10;;;;;;6194834;28;20511;-63
2022/03/06 08:52:36;;;;;;;0.98;0.80;;;18.80;46.10;;;;;;6194446;28;20030;-63
2022/03/06 08:55:36;;;;;;;1.60;1.05;;;18.80;46.00;;;;;;6195087;28;20033;-64
2022/03/06 08:58:37;;;;;;;1.33;1.08;;;18.80;46.10;;;;;;6194710;28;20106;-64
2022/03/06 09:01:38;;;;;;;1.30;0.93;;;18.80;46.00;;;;;;6194742;28;20045;-65
2022/03/06 09:04:38;;;;;;;2.35;0.90;;;18.80;46.00;;;;;;6194826;28;20026;-64
2022/03/06 09:07:39;;;;;;;1.73;1.20;;;18.80;46.10;;;;;;6194729;28;20026;-64
2022/03/06 09:10:40;;;;;;;1.25;0.90;;;18.80;46.10;;;;;;6194270;28;20478;-64
2022/03/06 09:13:41;;;;;;;1.20;1.02;;;18.80;46.10;;;;;;6194684;28;20512;-64
2022/03/06 09:16:41;;;;;;;1.10;1.00;;;18.80;46.10;;;;;;6194549;28;20030;-62
2022/03/06 09:19:42;;;;;;;1.75;0.80;;;18.80;46.00;;;;;;6195239;28;20034;-64
2022/03/06 09:22:42;;;;;;;0.80;0.70;;;18.80;46.00;;;;;;6194426;28;20117;-64
2022/03/06 09:25:43;;;;;;;0.85;0.60;;;18.80;46.00;;;;;;6194674;28;20113;-64
2022/03/06 09:28:43;;;;;;;0.80;0.70;;;18.80;46.10;;;;;;6194213;28;20288;-64
2022/03/06 09:31:44;;;;;;;3.00;1.00;;;18.80;46.00;;;;;;6194311;28;20507;-65
2022/03/06 09:34:45;;;;;;;1.65;1.10;;;18.80;46.00;;;;;;6194336;28;20027;-64
2022/03/06 09:37:45;;;;;;;1.17;0.98;;;18.80;46.10;;;;;;6194499;28;20029;-64
2022/03/06 09:40:46;;;;;;;0.90;0.70;;;18.80;46.00;;;;;;6194323;28;20023;-64
2022/03/06 09:43:48;;;;;;;1.40;1.00;;;18.80;45.90;;;;;;6194114;28;20027;-64
2022/03/06 09:46:48;;;;;;;1.23;0.82;;;18.80;46.00;;;;;;6181455;28;20045;-64
2022/03/06 09:49:49;;;;;;;1.20;0.82;;;18.90;46.00;;;;;;6190020;28;20046;-64
2022/03/06 09:52:49;;;;;;;1.23;0.77;;;18.90;46.00;;;;;;6193267;28;20390;-64
2022/03/06 09:55:50;;;;;;;1.80;0.90;;;18.90;46.10;;;;;;6192153;28;20034;-64
2022/03/06 09:58:50;;;;;;;3.75;0.75;;;18.90;46.10;;;;;;6192109;28;20130;-65
2022/03/06 10:01:51;;;;;;;2.15;0.90;;;18.80;46.00;;;;;;6192095;28;20026;-64
2022/03/06 10:04:52;;;;;;;3.92;0.90;;;18.90;46.10;;;;;;6192217;28;20019;-64
2022/03/06 10:07:52;;;;;;;1.90;1.00;;;18.90;46.00;;;;;;6215993;28;20033;-64
2022/03/06 10:11:02;;;;;;;2.72;1.10;;;18.90;46.00;;;;;;6220843;28;20037;-64
2022/03/06 10:14:03;;;;;;;1.25;1.00;;;18.90;46.10;;;;;;6220998;28;20041;-64
2022/03/06 10:17:14;;;;;;;3.30;1.00;;;18.90;46.10;;;;;;6198591;28;20116;-64
2022/03/06 10:20:15;;;;;;;3.58;1.30;;;18.90;46.20;;;;;;6196350;28;20519;-65
2022/03/06 10:23:26;;;;;;;1.13;0.90;;;18.80;46.10;;;;;;6195367;28;20227;-64
2022/03/06 10:26:29;;;;;;;1.25;0.90;;;18.90;46.30;;;;;;6194521;28;20042;-65
2022/03/06 10:29:30;;;;;;;2.17;0.98;;;18.90;46.20;;;;;;6196447;28;20150;-64
2022/03/06 10:32:42;;;;;;;1.98;1.17;;;18.90;46.30;;;;;;6196498;28;20393;-64
2022/03/06 10:35:45;;;;;;;1.38;0.73;;;18.90;46.10;;;;;;6195335;28;20113;-63
2022/03/06 10:38:54;;;;;;;1.30;0.82;;;18.90;46.20;;;;;;6196279;28;20080;-64
2022/03/06 10:41:56;;;;;;;1.02;0.73;;;18.90;46.30;;;;;;6195273;28;20026;-64
2022/03/06 10:44:56;;;;;;;0.68;0.68;;;18.90;46.30;;;;;;6195686;28;20393;-64
2022/03/06 10:47:57;;;;;;;1.30;1.00;;;18.90;46.20;;;;;;6195498;28;20038;-64
2022/03/06 10:51:01;;;;;;;1.17;0.88;;;18.90;46.20;;;;;;6195508;28;20481;-64
2022/03/06 10:54:02;;;;;;;1.55;0.98;;;18.90;46.30;;;;;;6216070;28;20026;-64
2022/03/06 10:57:09;;;;;;;2.65;0.82;;;18.90;46.50;;;;;;6219295;28;20509;-64
2022/03/06 11:00:10;;;;;;;1.00;0.80;;;18.90;46.40;;;;;;6219923;28;20465;-64
2022/03/06 11:03:14;;;;;;;1.23;0.80;;;18.90;46.20;;;;;;6219690;28;20030;-65
2022/03/06 11:06:18;;;;;;;1.15;0.80;;;18.90;46.30;;;;;;6219723;28;20537;-64
2022/03/06 11:09:20;;;;;;;1.08;0.77;;;18.90;46.20;;;;;;6219636;28;20034;-64
2022/03/06 11:12:23;;;;;;;1.50;0.70;;;18.90;46.30;;;;;;6219738;28;20022;-64
2022/03/06 11:15:24;;;;;;;0.88;0.65;;;18.90;46.30;;;;;;6219261;28;20022;-64
2022/03/06 11:18:26;;;;;;;1.20;0.77;;;18.90;46.30;;;;;;6218214;28;20040;-64
2022/03/06 11:21:28;;;;;;;1.77;0.98;;;18.90;46.30;;;;;;6199742;28;20396;-64
2022/03/06 11:24:31;;;;;;;1.75;0.73;;;18.90;46.30;;;;;;6194996;28;20038;-64
2022/03/06 11:28:09;;;;;;;1.58;0.80;;;18.90;46.30;;;;;;6194943;28;20517;-64
2022/03/06 11:31:13;;;;;;;2.08;0.82;;;18.90;46.30;;;;;;6194755;28;20054;-64
2022/03/06 11:34:27;;;;;;;1.02;0.80;;;18.90;46.30;;;;;;6194759;28;20409;-64
2022/03/06 11:37:28;;;;;;;1.50;0.75;;;18.90;46.30;;;;;;6193895;28;20030;-64
2022/03/06 11:40:44;;;;;;;1.05;0.70;;;18.90;46.40;;;;;;6189174;28;20031;-64
2022/03/06 11:43:48;;;;;;;1.45;0.93;;;18.90;46.40;;;;;;6188396;28;20030;-62
2022/03/06 11:46:49;;;;;;;1.33;0.80;;;18.90;46.40;;;;;;6194006;28;20046;-64
2022/03/06 11:49:59;;;;;;;1.23;0.77;;;18.90;46.40;;;;;;6194200;28;20038;-64
2022/03/06 11:53:18;;;;;;;1.15;0.77;;;18.90;46.40;;;;;;6206056;28;20029;-64
2022/03/06 11:56:39;;;;;;;1.05;0.80;;;18.90;46.40;;;;;;6218314;28;20346;-64
2022/03/06 11:59:44;;;;;;;1.25;0.85;;;18.90;46.40;;;;;;6218656;28;20100;-64
2022/03/06 12:02:53;;;;;;;1.35;0.80;;;18.90;46.40;;;;;;6197958;28;20019;-64
2022/03/06 12:05:55;;;;;;;7.45;0.80;;;18.90;46.40;;;;;;6182481;28;20031;-65
2022/03/06 12:08:56;;;;;;;5.47;0.70;;;18.90;47.20;;;;;;6170125;28;20047;-65
2022/03/06 12:12:04;;;;;;;3.70;0.65;;;18.90;46.70;;;;;;6184640;28;20022;-65
2022/03/06 12:15:16;;;;;;;1.95;0.80;;;19.00;46.50;;;;;;6169417;28;20031;-66
2022/03/06 12:18:17;;;;;;;1.35;0.77;;;19.00;46.50;;;;;;6197850;28;20022;-65
2022/03/06 12:21:22;;;;;;;1.83;0.98;;;18.90;46.40;;;;;;6218245;28;20060;-65
2022/03/06 12:24:29;;;;;;;1.15;0.85;;;19.00;46.50;;;;;;6197752;28;20049;-65
2022/03/06 12:27:30;;;;;;;1.23;0.80;;;19.00;46.50;;;;;;6192284;28;20488;-65
2022/03/06 12:30:32;;;;;;;1.60;0.90;;;18.90;46.50;;;;;;6193359;28;20078;-65
2022/03/06 12:33:35;;;;;;;1.98;0.70;;;19.00;46.50;;;;;;6193366;28;20019;-65
2022/03/06 12:36:37;;;;;;;4.05;0.60;;;19.00;46.50;;;;;;6192641;28;20027;-65
2022/03/06 12:39:38;;;;;;;1.17;0.60;;;18.90;46.50;;;;;;6193132;28;20029;-65
2022/03/06 12:42:41;;;;;;;2.50;0.90;;;18.90;46.50;;;;;;6180488;28;20030;-65
2022/03/06 12:45:41;;;;;;;0.63;0.50;;;19.00;46.60;;;;;;6192670;28;20449;-65
2022/03/06 12:48:42;;;;;;;1.17;0.77;;;19.00;46.60;;;;;;6193332;28;20117;-65
2022/03/06 12:51:47;;;;;;;1.08;0.60;;;19.00;46.60;;;;;;6194269;28;20088;-65
2022/03/06 12:54:49;;;;;;;1.00;0.70;;;19.00;46.60;;;;;;6217368;28;20125;-65
2022/03/06 12:57:55;;;;;;;0.90;0.60;;;18.90;46.50;;;;;;6217140;28;20496;-65
2022/03/06 13:01:06;;;;;;;1.08;0.60;;;19.00;46.60;;;;;;6217743;28;20014;-65
2022/03/06 13:04:08;;;;;;;2.35;0.70;;;19.00;46.60;;;;;;6217413;28;20488;-65
2022/03/06 13:07:08;;;;;;;6.00;0.73;;;19.00;46.60;;;;;;6217001;28;20026;-65
2022/03/06 13:10:12;;;;;;;1.55;0.70;;;19.00;46.60;;;;;;6217669;28;20037;-65
2022/03/06 13:13:15;;;;;;;5.70;0.73;;;19.00;46.60;;;;;;6217425;28;20105;-65
2022/03/06 13:16:27;;;;;;;3.92;0.80;;;19.00;46.60;;;;;;6198658;28;20026;-65
2022/03/06 13:19:42;;;;;;;4.00;0.80;;;19.00;46.60;;;;;;6192321;28;20033;-65
2022/03/06 13:22:43;;;;;;;;;;;19.00;46.70;;;;;;6193183;28;20026;-65
2022/03/06 13:25:44;;;;;;;1.52;0.80;;;19.00;46.70;;;;;;6191877;28;19976;-65
2022/03/06 13:28:45;;;;;;;5.00;0.90;;;19.00;46.60;;;;;;6192213;28;20042;-65
2022/03/06 13:31:47;;;;;;;1.70;0.80;;;19.00;46.70;;;;;;6192872;28;20034;-65
2022/03/06 13:34:47;;;;;;;2.17;0.70;;;19.00;46.70;;;;;;6192385;28;20026;-65
2022/03/06 13:38:14;;;;;;;4.35;0.75;;;19.00;46.70;;;;;;6192329;28;20068;-64
2022/03/06 13:41:16;;;;;;;2.15;0.88;;;19.00;47.40;;;;;;6194620;28;20038;-65
2022/03/06 13:44:16;;;;;;;0.95;0.73;;;19.00;46.70;;;;;;6197309;28;20146;-65
2022/03/06 13:47:17;;;;;;;1.60;0.60;;;19.00;46.80;;;;;;6188353;28;20084;-65
2022/03/06 13:50:27;;;;;;;3.50;0.85;;;19.00;46.70;;;;;;6173280;28;20425;-64
2022/03/06 13:53:29;;;;;;;0.82;0.50;;;19.00;46.70;;;;;;6208256;28;20026;-65
2022/03/06 13:56:35;;;;;;;3.70;0.80;;;19.00;46.70;;;;;;6196819;28;20031;-64
2022/03/06 13:59:38;;;;;;;4.90;0.77;;;19.00;46.70;;;;;;6197413;28;20034;-65
2022/03/06 14:02:38;;;;;;;0.50;0.45;;;19.00;46.70;;;;;;6196951;28;20026;-65
2022/03/06 14:05:48;;;;;;;1.50;0.77;;;19.00;46.70;;;;;;6196633;28;20035;-65
2022/03/06 14:08:48;;;;;;;1.48;0.80;;;19.10;46.80;;;;;;6196597;28;20026;-65
2022/03/06 14:11:49;;;;;;;1.88;0.80;;;19.10;46.80;;;;;;6196856;28;20030;-65
2022/03/06 14:14:50;;;;;;;3.42;0.63;;;19.00;46.70;;;;;;6195808;28;20370;-63
2022/03/06 14:17:53;;;;;;;1.30;0.70;;;19.10;46.80;;;;;;6206392;28;20022;-64
2022/03/06 14:20:54;;;;;;;0.73;0.60;;;19.10;46.80;;;;;;6221153;28;20065;-65
2022/03/06 14:23:55;;;;;;;1.83;0.80;;;19.00;46.80;;;;;;6201671;28;20073;-65
2022/03/06 14:26:56;;;;;;;4.10;0.70;;;19.00;46.80;;;;;;6195031;28;20034;-65
2022/03/06 14:29:57;;;;;;;3.65;0.80;;;19.00;46.80;;;;;;6196290;28;20034;-65
2022/03/06 14:32:57;;;;;;;2.50;0.80;;;19.00;46.80;;;;;;6196476;28;20429;-65
2022/03/06 14:35:58;;;;;;;2.95;0.70;;;19.10;46.90;;;;;;6195382;28;20034;-65
2022/03/06 14:38:58;;;;;;;1.40;0.80;;;19.10;46.90;;;;;;6196573;28;20030;-64
2022/03/06 14:42:00;;;;;;;1.00;0.52;;;19.00;46.80;;;;;;6181871;28;20030;-65
2022/03/06 14:45:01;;;;;;;1.73;0.70;;;19.00;46.90;;;;;;6194968;28;20026;-65
2022/03/06 14:48:02;;;;;;;1.15;0.80;;;19.10;46.90;;;;;;6196978;28;20033;-65
2022/03/06 14:51:05;;;;;;;1.63;0.88;;;19.00;46.90;;;;;;6194516;28;20030;-64
2022/03/06 14:54:06;;;;;;;2.05;0.90;;;19.10;47.00;;;;;;6215714;28;20040;-65
2022/03/06 14:57:06;;;;;;;4.20;0.95;;;19.10;47.40;;;;;;6218614;28;20036;-66
2022/03/06 15:00:09;;;;;;;7.70;1.00;;;19.20;47.30;;;;;;6218842;28;20038;-66
2022/03/06 15:03:09;;;;;;;12.23;1.10;;;19.20;47.30;;;;;;6219738;28;20022;-67
2022/03/06 15:06:14;;;;;;;13.88;1.05;;;19.20;47.00;;;;;;6218493;28;20026;-67
2022/03/06 15:09:15;;;;;;;11.38;1.05;;;19.20;46.90;;;;;;6218930;28;20060;-67
2022/03/06 15:12:15;;;;;;;4.68;1.08;;;19.20;46.80;;;;;;6218744;28;20026;-67
2022/03/06 15:15:16;;;;;;;2.63;1.00;;;19.20;46.70;;;;;;6218557;28;20037;-67
2022/03/06 15:18:16;;;;;;;5.22;0.80;;;19.30;46.70;;;;;;6218097;28;20245;-67
2022/03/06 15:21:17;;;;;;;12.15;1.02;;;19.20;46.50;;;;;;6218607;28;20303;-65
2022/03/06 15:24:17;;;;;;;7.32;0.70;;;19.30;47.30;;;;;;6218364;28;20085;-66
2022/03/06 15:27:18;;;;;;;5.80;0.90;;;19.30;47.30;;;;;;6206191;28;20109;-66
2022/03/06 15:30:19;;;;;;;4.75;0.73;;;19.20;46.90;;;;;;6193891;28;20516;-66
2022/03/06 15:33:20;;;;;;;2.33;0.90;;;19.20;47.00;;;;;;6193984;28;20428;-66
2022/03/06 15:36:20;;;;;;;4.90;0.73;;;19.20;47.20;;;;;;6193304;28;20247;-66
2022/03/06 15:39:20;;;;;;;1.77;0.60;;;19.20;47.20;;;;;;6193202;28;20089;-66
2022/03/06 15:42:21;;;;;;;6.40;1.00;;;19.20;47.30;;;;;;6180386;28;20044;-66
2022/03/06 15:45:21;;;;;;;2.15;0.70;;;19.20;47.30;;;;;;6193800;28;20382;-66
2022/03/06 15:48:23;;;;;;;2.38;0.82;;;19.20;47.30;;;;;;6193155;28;20026;-66